Time;durP1;ratioP1;P1;durP2;ratioP2;P2;SDS_P1;SDS_P2;PMS_P1;PMS_P2;Temp;Humidity;BMP_temperature;BMP_pressure;BME280_temperature;BME280_humidity;BME280_pressure;Samples;Min_cycle;Max_cycle;Signal;HPM_P1;HPM_P2
2022/03/24 04:01:19;;;;;;;63.08;29.58;;;5.10;99.90;;;;;;5621928;22;20050;-82
2022/03/24 04:03:44;;;;;;;58.42;28.30;;;5.10;99.90;;;;;;4999674;28;20046;-82
2022/03/24 04:06:12;;;;;;;52.78;26.75;;;5.10;99.90;;;;;;4999197;28;20602;-82
2022/03/24 04:08:39;;;;;;;54.00;27.95;;;5.10;99.90;;;;;;4984039;28;20041;-82
2022/03/24 04:11:07;;;;;;;62.50;29.95;;;5.10;99.90;;;;;;4976387;28;20053;-82
2022/03/24 04:13:39;;;;;;;59.83;30.75;;;5.00;99.90;;;;;;4980145;28;20038;-82
2022/03/24 04:16:06;;;;;;;61.35;30.23;;;5.00;99.90;;;;;;4979976;28;20054;-83
2022/03/24 04:18:32;;;;;;;60.33;30.55;;;4.90;99.90;;;;;;4980144;28;20169;-83
2022/03/24 04:20:58;;;;;;;60.20;30.58;;;5.00;99.90;;;;;;4980039;28;20073;-82
2022/03/24 04:23:24;;;;;;;60.38;28.42;;;5.00;99.90;;;;;;4980403;28;20129;-82
2022/03/24 04:25:51;;;;;;;63.97;31.40;;;5.00;99.90;;;;;;4979942;28;20465;-82
2022/03/24 04:28:17;;;;;;;65.55;32.08;;;5.00;99.90;;;;;;4979962;28;20397;-82
2022/03/24 04:30:45;;;;;;;62.22;30.63;;;4.90;99.90;;;;;;4978931;28;20042;-83
2022/03/24 04:33:11;;;;;;;65.20;33.05;;;4.90;99.90;;;;;;4979567;28;20490;-83
2022/03/24 04:35:38;;;;;;;61.33;31.65;;;4.90;99.90;;;;;;4963304;28;20046;-82
2022/03/24 04:38:04;;;;;;;62.95;32.15;;;4.80;99.90;;;;;;4979968;28;20308;-82
2022/03/24 04:40:30;;;;;;;67.18;33.83;;;4.80;99.90;;;;;;4979805;28;20034;-82
2022/03/24 04:42:57;;;;;;;67.53;32.78;;;4.80;99.90;;;;;;4997539;28;20038;-81
2022/03/24 04:45:23;;;;;;;55.50;29.40;;;4.80;99.90;;;;;;4979728;28;20470;-83
2022/03/24 04:47:49;;;;;;;61.28;29.95;;;4.80;99.90;;;;;;4979474;28;20077;-83
2022/03/24 04:50:17;;;;;;;57.75;29.55;;;4.70;99.90;;;;;;4963446;28;20062;-81
2022/03/24 04:52:43;;;;;;;64.45;30.38;;;4.70;99.90;;;;;;4980129;28;20050;-83
2022/03/24 04:55:09;;;;;;;63.80;32.78;;;4.60;99.90;;;;;;4962886;28;20038;-82
2022/03/24 04:57:35;;;;;;;65.72;31.55;;;4.70;99.90;;;;;;4978498;28;20046;-83
2022/03/24 05:00:02;;;;;;;68.00;33.03;;;4.70;99.90;;;;;;4979118;28;20097;-82
2022/03/24 05:02:29;;;;;;;71.22;34.88;;;4.60;99.90;;;;;;4962862;28;20502;-81
2022/03/24 05:04:55;;;;;;;75.82;35.38;;;4.60;99.90;;;;;;4978878;28;20081;-83
2022/03/24 05:07:21;;;;;;;68.20;33.80;;;4.50;99.90;;;;;;4962523;28;20034;-83
2022/03/24 05:09:46;;;;;;;77.00;35.35;;;4.50;99.90;;;;;;4978373;28;20042;-82
2022/03/24 05:12:12;;;;;;;71.93;34.03;;;4.50;99.90;;;;;;4977962;28;20038;-81
2022/03/24 05:14:38;;;;;;;72.47;34.88;;;4.50;99.90;;;;;;4977783;28;20125;-83
2022/03/24 05:17:05;;;;;;;71.25;34.75;;;4.50;99.90;;;;;;4977673;28;20042;-82
2022/03/24 05:19:31;;;;;;;72.78;34.72;;;4.50;99.90;;;;;;4995152;28;20034;-80
2022/03/24 05:21:57;;;;;;;76.10;34.92;;;4.40;99.90;;;;;;4960595;28;20541;-82
2022/03/24 05:24:23;;;;;;;65.70;32.55;;;4.50;99.90;;;;;;4977199;28;20494;-82
2022/03/24 05:26:49;;;;;;;65.63;32.38;;;4.50;99.90;;;;;;4995479;28;20085;-81
2022/03/24 05:29:15;;;;;;;76.63;33.88;;;4.50;99.90;;;;;;4996297;28;20126;-82
2022/03/24 05:31:40;;;;;;;66.03;33.05;;;4.50;99.90;;;;;;4996234;28;20069;-82
2022/03/24 05:34:06;;;;;;;65.32;32.22;;;4.40;99.90;;;;;;4962600;28;20042;-82
2022/03/24 05:36:32;;;;;;;75.10;34.55;;;4.40;99.90;;;;;;4978568;28;20034;-84
2022/03/24 05:38:58;;;;;;;69.90;33.58;;;4.50;99.90;;;;;;4978340;28;20062;-81
2022/03/24 05:41:24;;;;;;;58.75;29.10;;;4.50;99.90;;;;;;4977956;28;20046;-83
2022/03/24 05:44:06;;;;;;;61.45;31.77;;;4.40;99.90;;;;;;4978030;28;20042;-82
2022/03/24 05:46:37;;;;;;;71.53;32.53;;;4.40;99.90;;;;;;4961828;28;20034;-82
2022/03/24 05:49:06;;;;;;;63.97;31.92;;;4.50;99.90;;;;;;4996185;28;20035;-82
2022/03/24 05:51:32;;;;;;;68.95;32.30;;;4.40;99.90;;;;;;4978024;28;20117;-82
2022/03/24 05:53:57;;;;;;;65.10;32.42;;;4.40;99.90;;;;;;4977741;28;20042;-81
2022/03/24 05:56:23;;;;;;;61.95;31.92;;;4.40;99.90;;;;;;4978552;28;20042;-83
2022/03/24 05:58:49;;;;;;;61.30;30.27;;;4.50;99.90;;;;;;4995806;28;20038;-84
2022/03/24 06:01:15;;;;;;;64.05;31.02;;;4.50;99.90;;;;;;4978038;28;20061;-83
2022/03/24 06:03:44;;;;;;;68.53;33.50;;;4.50;99.90;;;;;;4978639;28;20120;-82
2022/03/24 06:06:10;;;;;;;63.42;33.20;;;4.50;99.90;;;;;;4978195;28;20048;-82
2022/03/24 06:08:36;;;;;;;61.47;32.28;;;4.50;99.90;;;;;;5002752;28;20043;-83
2022/03/24 06:11:03;;;;;;;66.10;32.03;;;4.50;99.90;;;;;;5015552;28;20042;-83
2022/03/24 06:13:28;;;;;;;62.03;31.73;;;4.50;99.90;;;;;;4992859;28;20042;-83
2022/03/24 06:15:55;;;;;;;65.35;32.65;;;4.60;99.90;;;;;;5000106;28;20050;-83
2022/03/24 06:18:21;;;;;;;69.80;33.95;;;4.60;99.90;;;;;;4981189;28;20489;-82
2022/03/24 06:20:47;;;;;;;73.20;32.88;;;4.60;99.90;;;;;;4981474;28;20045;-84
2022/03/24 06:23:12;;;;;;;74.35;33.50;;;4.60;99.90;;;;;;4981748;28;20454;-82
2022/03/24 06:25:41;;;;;;;64.18;31.75;;;4.70;99.90;;;;;;4981780;28;20042;-83
2022/03/24 06:28:08;;;;;;;72.43;34.35;;;4.70;99.90;;;;;;4999182;28;20042;-83
2022/03/24 06:30:34;;;;;;;59.38;30.27;;;4.70;99.90;;;;;;4965548;28;20430;-80
2022/03/24 06:33:00;;;;;;;73.65;33.85;;;4.70;99.90;;;;;;4981655;28;20100;-82
2022/03/24 06:35:25;;;;;;;73.15;35.38;;;4.70;99.90;;;;;;4979921;28;20047;-78
2022/03/24 06:37:52;;;;;;;72.60;35.53;;;4.70;99.90;;;;;;4979919;28;20112;-82
2022/03/24 06:40:19;;;;;;;70.95;35.35;;;4.70;99.90;;;;;;4981922;28;20077;-85
2022/03/24 06:42:45;;;;;;;78.57;38.15;;;4.80;99.90;;;;;;4965299;28;20049;-86
2022/03/24 06:45:12;;;;;;;70.40;35.15;;;4.80;99.90;;;;;;4965819;28;20046;-84
2022/03/24 06:47:42;;;;;;;74.00;36.58;;;4.80;99.90;;;;;;4999247;28;20394;-84
2022/03/24 06:50:15;;;;;;;71.60;36.20;;;4.90;99.90;;;;;;4982285;28;20041;-85
2022/03/24 06:52:42;;;;;;;76.50;37.97;;;4.90;99.90;;;;;;4982140;28;20034;-84
2022/03/24 06:55:08;;;;;;;82.10;38.42;;;5.00;99.90;;;;;;4966079;28;20134;-83
2022/03/24 06:57:36;;;;;;;82.18;39.53;;;5.10;99.90;;;;;;4965322;28;20042;-85
2022/03/24 07:00:06;;;;;;;82.15;38.40;;;5.10;99.90;;;;;;4965630;28;20074;-84
2022/03/24 07:02:32;;;;;;;86.47;42.70;;;5.20;99.90;;;;;;4999595;28;20046;-84
2022/03/24 07:04:58;;;;;;;86.85;42.80;;;5.30;99.90;;;;;;4981235;28;20034;-84
2022/03/24 07:07:27;;;;;;;84.97;42.33;;;5.30;99.90;;;;;;4965453;28;20121;-83
2022/03/24 07:09:53;;;;;;;96.03;47.60;;;5.40;99.90;;;;;;4966033;28;20129;-83
2022/03/24 07:12:22;;;;;;;89.80;45.30;;;5.50;99.90;;;;;;4980934;28;20046;-83
2022/03/24 07:14:48;;;;;;;94.05;47.38;;;5.60;99.90;;;;;;4980417;28;20057;-83
2022/03/24 07:17:14;;;;;;;95.30;47.28;;;5.70;99.90;;;;;;4965461;28;20042;-84
2022/03/24 07:19:40;;;;;;;95.68;47.22;;;5.70;99.90;;;;;;4979854;28;20038;-83
2022/03/24 07:22:09;;;;;;;98.93;48.67;;;5.90;99.90;;;;;;4981705;28;20490;-83
2022/03/24 07:24:34;;;;;;;101.10;48.53;;;5.90;99.90;;;;;;4964711;28;20061;-83
2022/03/24 07:27:00;;;;;;;108.57;53.53;;;6.00;99.90;;;;;;4998561;28;20089;-83
2022/03/24 07:29:26;;;;;;;96.15;49.47;;;6.10;99.90;;;;;;4981401;28;20070;-83
2022/03/24 07:31:52;;;;;;;104.22;53.45;;;6.20;99.90;;;;;;4964896;28;20034;-84
2022/03/24 07:34:18;;;;;;;106.38;52.88;;;6.30;99.90;;;;;;4981773;28;20093;-85
2022/03/24 07:36:44;;;;;;;109.15;56.95;;;6.40;99.90;;;;;;4965010;28;20394;-86
2022/03/24 07:39:11;;;;;;;108.82;54.90;;;6.50;99.90;;;;;;4964116;28;20073;-85
2022/03/24 07:41:37;;;;;;;107.22;55.15;;;6.60;99.90;;;;;;4980792;28;20038;-85
2022/03/24 07:44:03;;;;;;;106.10;55.08;;;6.70;99.90;;;;;;4965256;28;20487;-85
2022/03/24 07:46:39;;;;;;;104.53;53.63;;;6.80;99.90;;;;;;4980531;28;20045;-85
2022/03/24 07:49:05;;;;;;;111.63;55.20;;;6.90;99.90;;;;;;4997769;28;20116;-84
2022/03/24 07:51:34;;;;;;;103.82;53.80;;;7.00;99.90;;;;;;4964648;28;20038;-85
2022/03/24 07:54:03;;;;;;;100.50;53.17;;;7.10;99.90;;;;;;4981516;28;20486;-85
2022/03/24 07:56:47;;;;;;;98.97;53.00;;;7.30;99.90;;;;;;4964487;28;20094;-85
2022/03/24 07:59:13;;;;;;;92.30;48.03;;;7.40;99.90;;;;;;4980592;28;20428;-85
2022/03/24 08:01:39;;;;;;;88.07;47.05;;;7.50;99.90;;;;;;4997837;28;20074;-85
2022/03/24 08:04:05;;;;;;;89.00;47.72;;;7.70;99.90;;;;;;4980454;28;20663;-85
2022/03/24 08:06:32;;;;;;;95.85;50.58;;;7.70;99.90;;;;;;4964248;28;20034;-84
2022/03/24 08:08:59;;;;;;;85.20;46.97;;;7.90;99.90;;;;;;4997994;28;20077;-84
2022/03/24 08:11:28;;;;;;;92.93;48.80;;;8.00;99.90;;;;;;4980561;28;20043;-85
2022/03/24 08:13:55;;;;;;;85.30;46.97;;;8.10;99.90;;;;;;4979652;28;20112;-84
2022/03/24 08:16:25;;;;;;;83.18;43.88;;;8.20;99.90;;;;;;4978790;28;20085;-85
2022/03/24 08:18:51;;;;;;;80.88;44.35;;;8.40;99.90;;;;;;4963320;28;20045;-84
2022/03/24 08:21:20;;;;;;;87.75;45.60;;;8.50;99.90;;;;;;4964470;28;20177;-83
2022/03/24 08:23:46;;;;;;;79.82;44.28;;;8.70;99.90;;;;;;4997137;28;20096;-86
2022/03/24 08:26:12;;;;;;;83.70;46.35;;;8.80;99.90;;;;;;4980574;28;20088;-85
2022/03/24 08:28:37;;;;;;;89.40;47.88;;;9.00;99.90;;;;;;4979480;28;20478;-84
2022/03/24 08:31:04;;;;;;;82.10;44.33;;;9.20;99.90;;;;;;4978301;28;20046;-84
2022/03/24 08:33:30;;;;;;;79.00;43.70;;;9.30;99.90;;;;;;4962298;28;20061;-85
2022/03/24 08:36:21;;;;;;;78.63;43.10;;;9.50;99.90;;;;;;4963636;28;20042;-87
2022/03/24 08:39:06;;;;;;;71.55;40.88;;;9.80;99.90;;;;;;4989449;28;20380;-88
2022/03/24 08:41:42;;;;;;;70.75;37.60;;;9.90;99.90;;;;;;4992692;23;20094;-89
2022/03/24 08:44:40;;;;;;;;;;;;;;;;;;;;;
2022/03/24 08:47:51;;;;;;;70.90;37.97;;;10.30;99.90;;;;;;4996452;28;20034;-85
2022/03/24 08:50:27;;;;;;;;;;;;;;;;;;;;;
2022/03/24 09:03:57;;;;;;;56.45;32.05;;;11.60;99.90;;;;;;4937138;29;20411;-87
2022/03/24 09:10:42;;;;;;;53.63;32.28;;;12.10;99.90;;;;;;4861001;29;20479;-86
2022/03/24 09:13:10;;;;;;;57.92;35.10;;;12.40;99.90;;;;;;4860392;29;20065;-85
2022/03/24 09:15:36;;;;;;;57.53;33.00;;;12.60;99.90;;;;;;4860519;29;20124;-86
2022/03/24 09:18:05;;;;;;;54.83;33.35;;;12.80;99.90;;;;;;4860774;29;20487;-84
2022/03/24 09:20:44;;;;;;;57.67;33.33;;;12.90;99.90;;;;;;4909233;28;20051;-87
2022/03/24 09:23:15;;;;;;;60.88;34.88;;;13.00;99.90;;;;;;4958568;28;20490;-86
2022/03/24 09:25:57;;;;;;;61.45;36.05;;;13.20;99.90;;;;;;4944488;28;20097;-86
2022/03/24 09:29:28;;;;;;;;;;;;;;;;;;;;;
2022/03/24 09:32:12;;;;;;;75.57;35.88;;;13.60;99.90;;;;;;4967275;28;20049;-87
2022/03/24 09:34:44;;;;;;;59.88;35.50;;;13.90;99.90;;;;;;4958021;28;20051;-86
2022/03/24 09:37:13;;;;;;;61.70;34.30;;;14.10;99.90;;;;;;4957674;28;20034;-86
2022/03/24 09:39:40;;;;;;;56.03;34.58;;;14.30;99.90;;;;;;4942794;28;20039;-86
2022/03/24 09:42:06;;;;;;;56.50;34.13;;;14.40;99.90;;;;;;4942214;28;20043;-85
2022/03/24 09:44:39;;;;;;;56.42;33.95;;;14.60;99.90;;;;;;4942479;28;20051;-85
2022/03/24 09:47:05;;;;;;;61.78;36.45;;;14.70;99.90;;;;;;4942796;28;20050;-85
2022/03/24 09:49:37;;;;;;;54.40;34.42;;;14.80;99.90;;;;;;4942822;28;20042;-86
2022/03/24 09:52:28;;;;;;;58.08;33.35;;;14.90;99.90;;;;;;4958500;28;20475;-86
2022/03/24 09:54:55;;;;;;;58.85;34.63;;;15.10;99.90;;;;;;4942683;28;20097;-85
2022/03/24 09:57:27;;;;;;;57.50;33.47;;;15.30;99.90;;;;;;4943975;28;20043;-85
2022/03/24 10:04:57;;;;;;;50.83;31.42;;;15.70;99.90;;;;;;4896762;29;20084;-85
2022/03/24 10:11:50;;;;;;;;;;;;;;;;;;;;;
2022/03/24 10:14:40;;;;;;;;;;;;;;;;;;;;;
2022/03/24 10:17:20;;;;;;;49.38;30.95;;;16.30;99.90;;;;;;4973622;28;20058;-86
2022/03/24 10:27:21;;;;;;;;;;;;;;;;;;;;;
2022/03/24 10:30:12;;;;;;;50.70;28.55;;;17.00;99.90;;;;;;4869267;29;20060;-86
2022/03/24 10:32:53;;;;;;;45.95;26.00;;;17.20;99.90;;;;;;4844573;29;20065;-86
2022/03/24 10:35:22;;;;;;;47.53;27.65;;;17.30;99.20;;;;;;4844988;29;20459;-87
2022/03/24 10:37:52;;;;;;;46.10;26.77;;;17.40;98.70;;;;;;4829855;29;20057;-85
2022/03/24 10:40:18;;;;;;;49.10;26.73;;;17.50;98.60;;;;;;4844016;29;20132;-87
2022/03/24 10:42:46;;;;;;;40.40;24.45;;;17.60;96.40;;;;;;4844047;29;20053;-87
2022/03/24 10:45:18;;;;;;;43.20;26.52;;;17.70;96.20;;;;;;4844519;29;20049;-87
2022/03/24 10:47:56;;;;;;;45.45;27.67;;;17.70;96.30;;;;;;4843282;29;20074;-85
2022/03/24 10:50:31;;;;;;;45.78;27.70;;;17.80;95.50;;;;;;4864732;29;20056;-86
2022/03/24 10:53:15;;;;;;;41.45;25.38;;;18.00;96.20;;;;;;4902890;29;20059;-86
2022/03/24 10:55:44;;;;;;;45.28;26.13;;;18.10;96.00;;;;;;4899206;28;20036;-85
2022/03/24 10:58:17;;;;;;;47.67;25.20;;;18.30;94.70;;;;;;4980507;28;20069;-86
2022/03/24 11:00:45;;;;;;;40.67;25.40;;;18.50;94.50;;;;;;4982743;28;20410;-87
2022/03/24 11:03:11;;;;;;;44.00;23.63;;;18.70;94.00;;;;;;4999534;28;20046;-86
2022/03/24 11:05:37;;;;;;;42.53;22.60;;;18.90;93.10;;;;;;4981415;28;20049;-86
2022/03/24 11:08:05;;;;;;;39.63;21.55;;;19.10;92.20;;;;;;4982683;28;20053;-86
2022/03/24 11:10:33;;;;;;;40.88;23.13;;;19.20;90.20;;;;;;4981608;28;20046;-86
2022/03/24 11:13:01;;;;;;;40.75;21.98;;;19.20;86.50;;;;;;4982047;28;20410;-84
2022/03/24 11:15:28;;;;;;;31.52;16.15;;;19.20;85.40;;;;;;4964976;28;20494;-85
2022/03/24 11:17:54;;;;;;;34.60;18.48;;;19.20;82.30;;;;;;4980606;28;20043;-85
2022/03/24 11:20:35;;;;;;;35.97;18.98;;;19.30;80.10;;;;;;4964677;28;20041;-85
2022/03/24 11:23:16;;;;;;;35.65;20.90;;;19.30;78.60;;;;;;4998553;28;20077;-85
2022/03/24 11:25:43;;;;;;;38.45;20.83;;;19.40;77.40;;;;;;4964491;28;20049;-85
2022/03/24 11:28:13;;;;;;;38.42;20.45;;;19.50;77.00;;;;;;4980701;28;20046;-85
2022/03/24 11:30:39;;;;;;;40.03;20.33;;;19.60;75.30;;;;;;4980789;28;20046;-85
2022/03/24 11:33:05;;;;;;;36.08;20.80;;;19.60;74.70;;;;;;4980220;28;20042;-84
2022/03/24 11:35:35;;;;;;;37.47;21.50;;;19.70;73.10;;;;;;4964322;28;20100;-86
2022/03/24 11:38:02;;;;;;;38.40;21.13;;;19.80;73.50;;;;;;4980326;28;20172;-85
2022/03/24 11:40:35;;;;;;;33.28;19.90;;;19.80;71.50;;;;;;4980275;28;20525;-86
2022/03/24 11:43:16;;;;;;;36.20;21.88;;;19.90;70.40;;;;;;4980244;28;20177;-87
2022/03/24 11:46:04;;;;;;;34.90;21.38;;;20.00;67.80;;;;;;4998410;28;20042;-86
2022/03/24 11:48:38;;;;;;;54.10;21.90;;;20.00;69.60;;;;;;4996368;28;20057;-86
2022/03/24 11:51:21;;;;;;;34.97;20.83;;;20.10;69.90;;;;;;4980306;28;20042;-87
2022/03/24 11:54:05;;;;;;;41.55;23.35;;;20.20;70.70;;;;;;4997344;28;20274;-86
2022/03/24 11:56:32;;;;;;;34.47;22.60;;;20.40;70.40;;;;;;4963345;28;20038;-86
2022/03/24 11:58:57;;;;;;;40.40;23.25;;;20.60;69.60;;;;;;4979728;28;20076;-86
2022/03/24 12:01:30;;;;;;;36.65;22.10;;;20.70;69.80;;;;;;4997303;28;20375;-87
2022/03/24 12:04:06;;;;;;;38.65;22.67;;;20.80;68.10;;;;;;4980823;28;20375;-85
2022/03/24 12:06:52;;;;;;;44.05;22.52;;;20.90;66.70;;;;;;4965013;28;20046;-84
2022/03/24 12:09:28;;;;;;;35.67;23.25;;;20.90;65.50;;;;;;4964287;28;20042;-84
2022/03/24 12:12:03;;;;;;;37.38;22.88;;;20.90;64.90;;;;;;4979610;28;20057;-85
2022/03/24 12:14:45;;;;;;;40.05;23.83;;;20.90;65.50;;;;;;4964487;28;20050;-85
2022/03/24 12:17:34;;;;;;;35.70;21.88;;;21.10;65.50;;;;;;4980900;28;20110;-85
2022/03/24 12:20:20;;;;;;;34.92;21.30;;;21.30;64.00;;;;;;4963649;28;20099;-84
2022/03/24 12:22:46;;;;;;;35.22;19.92;;;21.30;63.60;;;;;;4963933;28;20482;-84
2022/03/24 12:25:22;;;;;;;33.30;20.42;;;21.30;63.10;;;;;;4963120;28;20054;-85
2022/03/24 12:28:08;;;;;;;34.05;20.10;;;21.40;64.60;;;;;;4963501;28;20042;-84
2022/03/24 12:30:59;;;;;;;33.90;18.85;;;21.50;64.70;;;;;;4979983;28;20050;-86
2022/03/24 12:33:40;;;;;;;34.45;20.15;;;21.70;62.50;;;;;;4964655;28;20042;-85
2022/03/24 12:36:13;;;;;;;33.70;20.38;;;21.70;63.00;;;;;;4963864;28;20486;-85
2022/03/24 12:38:40;;;;;;;35.05;21.10;;;21.80;60.60;;;;;;4980023;28;20057;-85
2022/03/24 12:41:06;;;;;;;35.60;21.77;;;21.60;60.20;;;;;;4963530;28;20042;-85
2022/03/24 12:43:40;;;;;;;36.65;21.65;;;21.40;60.90;;;;;;4963438;28;20045;-85
2022/03/24 12:46:28;;;;;;;29.63;18.83;;;21.30;60.70;;;;;;4963573;28;20038;-84
2022/03/24 12:48:56;;;;;;;38.25;22.08;;;21.10;60.00;;;;;;4963799;28;20038;-84
2022/03/24 12:51:28;;;;;;;35.42;21.85;;;21.00;60.80;;;;;;4963396;28;20049;-86
2022/03/24 12:53:57;;;;;;;34.47;20.73;;;21.30;61.30;;;;;;4978846;28;20137;-85
2022/03/24 12:56:30;;;;;;;30.83;20.10;;;21.50;60.40;;;;;;4963461;28;20038;-86
2022/03/24 12:59:26;;;;;;;;;;;;;;;;;;;;;
2022/03/24 13:06:09;;;;;;;33.47;19.52;;;21.90;58.40;;;;;;4997152;28;20144;-85
2022/03/24 13:13:02;;;;;;;;;;;;;;;;;;;;;
2022/03/24 13:15:58;;;;;;;34.28;20.92;;;22.30;58.10;;;;;;4996287;28;20077;-85
2022/03/24 13:20:00;;;;;;;;;;;;;;;;;;;;;
2022/03/24 13:23:34;;;;;;;;;;;;;;;;;;;;;
2022/03/24 13:35:26;;;;;;;;;;;;;;;;;;;;;
2022/03/24 13:38:44;;;;;;;39.88;22.13;;;23.00;55.40;;;;;;4825394;29;20477;-84
2022/03/24 13:41:34;;;;;;;35.20;23.30;;;22.90;56.50;;;;;;4819347;29;20070;-86
2022/03/24 13:44:51;;;;;;;;;;;;;;;;;;;;;
2022/03/24 13:47:48;;;;;;;46.45;25.13;;;22.60;55.00;;;;;;4897718;29;20083;-85
2022/03/24 13:50:57;;;;;;;;;;;;;;;;;;;;;
2022/03/24 13:58:44;;;;;;;44.47;26.40;;;22.20;55.80;;;;;;4805300;29;20093;-85
2022/03/24 14:05:17;;;;;;;38.70;24.60;;;22.10;57.30;;;;;;4863106;29;20136;-83
2022/03/24 14:08:07;;;;;;;;;;;;;;;;;;;;;
2022/03/24 14:14:45;;;;;;;35.78;21.55;;;21.70;57.30;;;;;;4939112;29;20488;-85
2022/03/24 14:17:20;;;;;;;33.13;20.50;;;21.80;56.10;;;;;;4876874;28;20116;-84
2022/03/24 14:20:17;;;;;;;30.20;18.65;;;21.90;56.20;;;;;;4974118;28;20366;-85
2022/03/24 14:23:10;;;;;;;34.72;22.55;;;22.00;57.70;;;;;;4977038;28;20050;-85
2022/03/24 14:26:03;;;;;;;;;;;;;;;;;;;;;
2022/03/24 14:28:57;;;;;;;;;;;;;;;;;;;;;
2022/03/24 14:36:47;;;;;;;37.45;23.25;;;22.10;56.70;;;;;;4339433;26;20053;-84
2022/03/24 14:40:11;;;;;;;38.17;22.65;;;21.80;55.80;;;;;;4985521;28;20065;-86
2022/03/24 14:42:47;;;;;;;39.22;23.80;;;21.60;55.90;;;;;;4887310;29;20132;-84
2022/03/24 14:45:25;;;;;;;34.60;19.40;;;21.50;56.00;;;;;;4905623;29;20028;-84
2022/03/24 14:48:08;;;;;;;34.65;19.40;;;21.30;56.40;;;;;;4904889;29;20128;-85
2022/03/24 14:50:53;;;;;;;;;;;;;;;;;;;;;
2022/03/24 14:53:28;;;;;;;33.85;18.98;;;21.40;56.80;;;;;;4903140;29;20526;-85
2022/03/24 14:56:12;;;;;;;31.83;18.77;;;21.50;56.40;;;;;;4903840;29;20044;-85
2022/03/24 14:59:03;;;;;;;38.22;18.73;;;21.40;56.60;;;;;;4903677;29;20493;-85
2022/03/24 15:01:46;;;;;;;37.53;20.05;;;21.30;56.50;;;;;;4917868;29;20048;-85
2022/03/24 15:04:21;;;;;;;37.45;23.83;;;21.00;57.20;;;;;;4903651;29;20362;-85
2022/03/24 15:06:46;;;;;;;41.58;25.90;;;20.90;57.40;;;;;;4947621;28;20042;-85
2022/03/24 15:09:27;;;;;;;39.85;24.65;;;20.80;57.10;;;;;;4982770;28;20050;-85
2022/03/24 15:11:53;;;;;;;41.47;26.70;;;20.70;57.90;;;;;;4979822;28;20042;-84
2022/03/24 15:17:15;;;;;;;49.30;28.67;;;21.00;58.90;;;;;;4981175;28;20520;-84
2022/03/24 15:19:41;;;;;;;44.35;27.17;;;21.00;58.10;;;;;;4980991;28;20208;-83
2022/03/24 15:22:12;;;;;;;48.40;29.40;;;21.00;58.20;;;;;;4964322;28;20042;-84
2022/03/24 15:24:50;;;;;;;;;;;;;;;;;;;;;
2022/03/24 15:27:28;;;;;;;48.15;31.60;;;21.20;58.20;;;;;;4980559;28;20380;-85
2022/03/24 15:30:05;;;;;;;53.30;31.08;;;21.00;57.70;;;;;;4963984;28;20053;-85
2022/03/24 15:32:39;;;;;;;55.40;32.58;;;20.80;58.00;;;;;;4980104;28;20125;-83
2022/03/24 15:35:09;;;;;;;53.30;33.70;;;20.50;58.10;;;;;;4981357;28;20129;-85
2022/03/24 15:37:51;;;;;;;;;;;;;;;;;;;;;
2022/03/24 15:40:17;;;;;;;51.25;32.88;;;20.20;59.00;;;;;;4981081;28;20046;-84
2022/03/24 15:42:47;;;;;;;56.35;34.22;;;20.10;59.20;;;;;;4963376;28;20125;-85
2022/03/24 15:45:15;;;;;;;57.40;35.08;;;20.00;59.10;;;;;;4979835;28;20058;-85
2022/03/24 15:47:54;;;;;;;57.58;33.63;;;19.90;59.20;;;;;;4964065;28;20050;-85
2022/03/24 15:50:36;;;;;;;58.08;33.78;;;19.80;59.40;;;;;;4964398;28;20076;-85
2022/03/24 15:53:14;;;;;;;64.53;34.25;;;19.70;59.60;;;;;;4980159;28;20417;-85
2022/03/24 15:55:53;;;;;;;57.45;32.80;;;19.70;59.60;;;;;;4964615;28;20086;-84
2022/03/24 15:58:38;;;;;;;;;;;;;;;;;;;;;
2022/03/24 16:01:18;;;;;;;;;;;;;;;;;;;;;
2022/03/24 16:03:49;;;;;;;52.00;30.35;;;19.50;60.60;;;;;;4980031;28;20046;-85
2022/03/24 16:06:20;;;;;;;50.03;28.77;;;19.70;60.90;;;;;;4980909;28;20033;-83
2022/03/24 16:08:49;;;;;;;49.28;28.25;;;19.90;59.60;;;;;;4981119;28;20052;-85
2022/03/24 16:11:28;;;;;;;;;;;;;;;;;;;;;
2022/03/24 16:14:07;;;;;;;49.97;28.15;;;19.90;58.60;;;;;;4940991;29;20065;-85
2022/03/24 16:16:48;;;;;;;;;;;;;;;;;;;;;
2022/03/24 16:19:28;;;;;;;49.35;26.52;;;20.00;59.10;;;;;;4940561;29;20192;-85
2022/03/24 16:23:01;;;;;;;43.00;24.52;;;20.20;57.80;;;;;;4924844;29;20508;-85
2022/03/24 16:26:07;;;;;;;42.55;23.27;;;20.00;57.20;;;;;;4918538;29;20047;-84
2022/03/24 16:28:54;;;;;;;42.58;24.48;;;19.70;57.50;;;;;;4940327;29;20110;-84
2022/03/24 16:31:27;;;;;;;42.40;22.67;;;19.60;57.30;;;;;;4955838;28;20559;-84
2022/03/24 16:37:02;;;;;;;45.42;22.35;;;19.60;56.30;;;;;;4940481;29;20098;-85
2022/03/24 16:39:41;;;;;;;35.28;20.50;;;19.50;56.20;;;;;;4924527;29;20138;-84
2022/03/24 16:42:55;;;;;;;37.17;20.20;;;19.20;55.50;;;;;;4941810;28;20050;-84
2022/03/24 16:46:13;;;;;;;;;;;;;;;;;;;;;
2022/03/24 16:49:04;;;;;;;;;;;;;;;;;;;;;
2022/03/24 16:53:03;;;;;;;;;;;;;;;;;;;;;
2022/03/24 17:31:22;;;;;;;42.83;22.33;;;16.00;58.40;;;;;;1102242;23;20459;-83
2022/03/24 17:34:00;;;;;;;42.50;20.87;;;15.90;59.00;;;;;;4981255;28;20076;-83
2022/03/24 17:36:32;;;;;;;46.47;22.98;;;15.80;59.10;;;;;;4981235;28;20300;-83
2022/03/24 17:42:21;;;;;;;38.78;21.10;;;15.50;60.80;;;;;;4974938;28;20073;-83
2022/03/24 17:44:47;;;;;;;44.85;22.63;;;15.30;60.20;;;;;;4978129;28;20053;-84
2022/03/24 17:47:14;;;;;;;42.45;21.83;;;15.20;60.20;;;;;;4981493;28;20034;-84
2022/03/24 17:49:41;;;;;;;40.92;21.95;;;15.10;60.40;;;;;;4982584;28;20053;-84
2022/03/24 17:52:06;;;;;;;46.15;22.20;;;14.90;60.50;;;;;;4981308;28;20124;-83
2022/03/24 17:54:32;;;;;;;43.08;23.38;;;14.80;60.90;;;;;;4981701;28;20117;-85
2022/03/24 17:56:58;;;;;;;40.92;21.92;;;14.60;61.60;;;;;;4997781;28;20057;-86
2022/03/24 17:59:23;;;;;;;45.00;23.15;;;14.60;62.00;;;;;;5015574;28;20164;-83
2022/03/24 18:01:52;;;;;;;42.70;22.40;;;14.40;62.50;;;;;;5015030;28;20092;-83
2022/03/24 18:04:17;;;;;;;46.75;22.60;;;14.40;62.80;;;;;;5016011;28;20046;-84
2022/03/24 18:06:43;;;;;;;46.38;21.95;;;14.30;63.70;;;;;;4984776;28;20402;-83
2022/03/24 18:09:09;;;;;;;46.25;24.48;;;14.20;64.10;;;;;;5001167;28;20032;-84
2022/03/24 18:11:35;;;;;;;42.88;23.45;;;14.20;63.70;;;;;;5000379;28;20057;-83
2022/03/24 18:14:00;;;;;;;40.50;21.60;;;14.10;63.40;;;;;;5001313;28;20115;-83
2022/03/24 18:16:26;;;;;;;47.30;21.88;;;13.90;63.30;;;;;;4999909;28;20041;-83
2022/03/24 18:18:52;;;;;;;46.00;23.60;;;13.70;63.50;;;;;;5018528;28;20443;-83
2022/03/24 18:21:17;;;;;;;43.72;22.55;;;13.60;63.70;;;;;;5000185;28;20135;-84
2022/03/24 18:23:43;;;;;;;42.40;21.35;;;13.60;63.60;;;;;;5000486;28;20479;-83
2022/03/24 18:26:12;;;;;;;40.10;21.92;;;13.50;63.50;;;;;;5000973;28;20073;-83
2022/03/24 18:28:38;;;;;;;39.42;21.23;;;13.40;63.10;;;;;;5001181;28;20350;-83
2022/03/24 18:31:04;;;;;;;39.97;21.30;;;13.40;63.00;;;;;;5019493;28;20052;-83
2022/03/24 18:33:31;;;;;;;43.72;20.35;;;13.30;62.80;;;;;;5000667;28;20042;-83
2022/03/24 18:35:56;;;;;;;39.20;20.10;;;13.30;62.60;;;;;;5017774;28;20449;-84
2022/03/24 18:38:22;;;;;;;44.00;21.92;;;13.20;62.70;;;;;;5000521;28;20134;-85
2022/03/24 18:40:48;;;;;;;43.45;23.05;;;13.10;62.60;;;;;;5017976;28;20041;-84
2022/03/24 18:43:15;;;;;;;41.75;21.67;;;13.00;63.00;;;;;;4985242;28;20132;-84
2022/03/24 18:45:43;;;;;;;44.85;22.67;;;12.90;63.40;;;;;;5001148;28;20144;-84
2022/03/24 18:48:10;;;;;;;45.08;23.00;;;12.80;63.80;;;;;;5019778;28;20046;-91
2022/03/24 18:50:36;;;;;;;45.40;22.77;;;12.80;64.30;;;;;;5001241;28;20049;-86
2022/03/24 18:53:01;;;;;;;45.25;23.02;;;12.70;64.90;;;;;;5019339;28;20120;-85
2022/03/24 18:55:27;;;;;;;49.50;24.67;;;12.60;65.80;;;;;;5002039;28;20434;-83
2022/03/24 18:57:53;;;;;;;42.35;23.30;;;12.60;66.30;;;;;;4984819;28;20038;-84
2022/03/24 19:00:20;;;;;;;46.65;24.48;;;12.50;67.10;;;;;;5017996;28;20381;-84
2022/03/24 19:02:46;;;;;;;50.63;25.23;;;12.50;68.10;;;;;;5000366;28;20046;-84
2022/03/24 19:05:11;;;;;;;50.08;26.83;;;12.50;69.00;;;;;;4985196;28;20157;-86
2022/03/24 19:07:37;;;;;;;57.50;27.02;;;12.40;69.70;;;;;;5002127;28;20073;-85
2022/03/24 19:10:04;;;;;;;52.78;27.92;;;12.30;70.90;;;;;;5019863;28;20466;-86
2022/03/24 19:12:30;;;;;;;58.22;29.10;;;12.20;72.10;;;;;;5019451;28;20429;-86
2022/03/24 19:14:57;;;;;;;52.38;28.75;;;12.00;73.70;;;;;;5018770;28;20054;-84
2022/03/24 19:17:24;;;;;;;61.95;31.35;;;11.80;76.80;;;;;;5001771;28;20060;-86
2022/03/24 19:19:50;;;;;;;59.13;30.58;;;11.70;79.10;;;;;;5001028;28;20045;-85
2022/03/24 19:22:18;;;;;;;62.10;32.35;;;11.60;82.80;;;;;;5000792;28;20076;-85
2022/03/24 19:24:44;;;;;;;64.85;34.17;;;11.50;86.50;;;;;;5000403;28;20053;-85
2022/03/24 19:27:10;;;;;;;69.93;34.40;;;11.40;90.00;;;;;;5001139;28;20041;-85